Reese River Valley, Nevada Weather observations

Data are for 10 minute period ending at time listed.
 Day   Time   Solar   Ave.   Ave.  Ave.  Vector  Max.   Baro.   Total    
  of    of     Rad.   Air    Rel.  Wind   Wind   Wind  Press.  Precip.   
Year   Day            Temp.  Hum.  Speed  Dir.   Gust                    
2014   (PST)  Kw/m2    F      %     mph   deg.    mph    mb.     in.     
-------------------------------------------------------------------------
 256   17:30   0.09   78.5    13    8.5   350    12.9   813.7    0.00 
 256   17:40   0.06   77.4    14    6.7   338    10.2   813.9    0.00 
 256   17:50   0.02   75.8    14    6.2   359     9.4   814.0    0.00 
 256   18:00   0.01   73.8    15    7.5    22    13.7   814.1    0.00 
 256   18:10   0.00   72.8    15    8.4    33    11.8   814.2    0.00 
 256   18:20   0.00   71.3    16    5.9    28    10.4   814.2    0.00 
 256   18:30   0.00   69.0    18    2.5    68     4.5   814.3    0.00 
 256   18:40   0.00   65.7    23    3.0   206     4.4   814.4    0.00 
 256   18:50   0.00   66.8    20    0.7   289     2.3   814.5    0.00 
 256   19:00   0.00   67.4    20    3.8   322     6.1   814.5    0.00 
 256   19:10   0.00   66.4    21    4.2   331     6.4   814.5    0.00 
 256   19:20   0.00   63.7    23    3.6   323     5.2   814.6    0.00 
 256   19:30   0.00   62.6    23    1.3   158     3.5   814.6    0.00 
 256   19:40   0.00   62.8    21    3.4   170     5.9   814.7    0.00 
 256   19:50   0.00   58.0    26    5.7   156     7.2   814.8    0.00 
 256   20:00   0.00   56.5    27    5.5   156     6.4   814.9    0.00 
 256   20:10   0.00   55.7    26    5.1   152     6.1   814.8    0.00 
 256   20:20   0.00   54.6    31    4.9   162     5.6   814.7    0.00 
 256   20:30   0.00   53.8    31    6.9   212    10.6   814.8    0.00 
 256   20:40   0.00   55.1    29    5.1   201     6.6   814.9    0.00 
 256   20:50   0.00   52.5    33    4.9   216     6.9   814.8    0.00 
 256   21:00   0.00   52.0    34    6.8   221     7.9   814.7    0.00 
 256   21:10   0.00   52.8    33    6.1   211     7.2   814.8    0.00 
 256   21:20   0.00   52.4    36    5.4   212     7.4   814.8    0.00 
 256   21:30   0.00   52.6    32    5.3   202     7.4   814.9    0.00 
 256   21:40   0.00   52.1    35    5.9   211     7.2   814.9    0.00 
 256   21:50   0.00   51.0    37    5.6   219     6.5   814.9    0.00 
 256   22:00   0.00   50.5    39    5.7   222     6.7   814.9    0.00 
 256   22:10   0.00   51.2    37    6.5   223     8.4   814.8    0.00 
 256   22:20   0.00   51.7    37    5.4   217     6.9   814.8    0.00 
 256   22:30   0.00   51.3    34    4.8   190     6.9   814.9    0.00 
 256   22:40   0.00   51.0    37    6.0   213     7.4   814.9    0.00 
 256   22:50   0.00   51.0    37    5.6   211     7.1   814.9    0.00 
 256   23:00   0.00   50.5    36    4.4   189     5.6   815.0    0.00 
 256   23:10   0.00   53.5    30    6.5   198     9.2   815.0    0.00 
 256   23:20   0.00   54.4    34    6.0   223     7.7   815.0    0.00 
 256   23:30   0.00   53.2    37    5.5   219     8.5   815.1    0.00 
 256   23:40   0.00   52.3    36    7.3   232     8.9   815.0    0.00 
 256   23:50   0.00   51.5    37    6.1   231     8.2   814.9    0.00 
 257    0:00   0.00   52.4    32    5.0   190     6.2   814.9    0.00 
 257    0:10   0.00   53.1    30    5.6   186     6.9   814.9    0.00 
 257    0:20   0.00   53.4    29    5.0   186     7.4   814.8    0.00 
 257    0:30   0.00   51.7    35    6.3   217     8.3   814.9    0.00 
 257    0:40   0.00   51.6    34    4.6   194     6.1   814.9    0.00 
 257    0:50   0.00   51.7    31    4.4   182     6.1   814.9    0.00 
 257    1:00   0.00   51.8    31    5.0   189     6.1   814.9    0.00 
 257    1:10   0.00   50.8    33    5.9   186     9.2   814.9    0.00 
 257    1:20   0.00   50.5    35    5.1   187     6.2   814.9    0.00 
 257    1:30   0.00   49.2    40    5.8   214     7.6   814.9    0.00 
 257    1:40   0.00   48.1    42    6.1   228     8.6   814.9    0.00 
 257    1:50   0.00   48.4    43    4.3   209     6.1   815.0    0.00 
 257    2:00   0.00   50.0    35    4.1   190     5.5   815.0    0.00 
 257    2:10   0.00   50.0    36    5.0   193     7.0   815.0    0.00 
 257    2:20   0.00   50.1    37    6.0   192     8.0   815.0    0.00 
 257    2:30   0.00   50.8    34    5.1   191     6.9   814.9    0.00 
 257    2:40   0.00   49.4    38    4.6   197     6.3   815.0    0.00 
 257    2:50   0.00   49.5    37    5.8   200     6.8   814.9    0.00 
 257    3:00   0.00   49.9    35    5.8   189     7.5   815.0    0.00 
 257    3:10   0.00   49.7    35    6.0   194     7.7   815.1    0.00 
 257    3:20   0.00   49.4    36    5.6   186     7.5   815.1    0.00 
 257    3:30   0.00   50.4    32    5.6   183     6.9   815.1    0.00 
 257    3:40   0.00   52.0    31    5.5   184     7.2   815.2    0.00 
 257    3:50   0.00   52.1    32    5.4   188     6.8   815.2    0.00 
 257    4:00   0.00   51.2    35    5.0   189     6.4   815.3    0.00 
 257    4:10   0.00   50.2    42    5.0   204     6.4   815.3    0.00 
 257    4:20   0.00   49.9    40    5.7   200     6.6   815.3    0.00 
 257    4:30   0.00   48.8    46    5.6   217     7.2   815.4    0.00 
 257    4:40   0.00   47.6    46    6.0   225     7.7   815.4    0.00 
 257    4:50   0.00   47.6    45    6.0   213     7.2   815.5    0.00 
 257    5:00   0.00   47.7    45    5.9   200     7.1   815.5    0.00 
 257    5:10   0.00   46.7    48    6.4   222     7.7   815.7    0.00 
 257    5:20   0.00   47.0    45    7.5   205     8.6   815.8    0.00 
 257    5:30   0.00   47.5    41    6.2   184     8.0   815.9    0.00 
 257    5:40   0.01   46.7    45    6.9   204     7.7   816.0    0.00 
 257    5:50   0.01   45.4    49    7.0   218     8.1   816.1    0.00 
 257    6:00   0.02   45.5    50    6.8   212     8.3   816.2    0.00 
 257    6:10   0.07   46.9    46    5.1   189     6.6   816.2    0.00 
 257    6:20   0.07   48.6    41    5.1   188     6.6   816.3    0.00 
 257    6:30   0.10   48.8    48    5.6   208     6.9   816.3    0.00 
 257    6:40   0.10   49.5    51    4.3   210     6.7   816.4    0.00 
 257    6:50   0.10   50.1    50    4.5   215     7.0   816.4    0.00 
 257    7:00   0.18   50.7    49    5.9   221     8.0   816.4    0.00 
 257    7:10   0.35   55.5    44    6.7   223     8.9   816.5    0.00 
 257    7:20   0.36   60.2    39    6.4   223     9.1   816.6    0.00 
 257    7:30   0.41   62.2    42    4.8   239     6.9   816.7    0.00 
 257    7:40   0.37   63.0    40    5.7   236     7.4   816.9    0.00 
 257    7:50   0.24   64.0    38    4.9   232     6.4   817.0    0.00 
 257    8:00   0.47   64.5    40    4.4   236     5.8   817.2    0.00 
 257    8:10   0.24   66.3    36    3.1   257     4.5   817.2    0.00 
 257    8:20   0.45   66.5    39    2.5   261     3.6   817.2    0.00 
 257    8:30   0.47   68.6    31    2.2   266     3.8   817.3    0.00 
 257    8:40   0.47   69.6    29    1.7   280     2.6   817.3    0.00 
 257    8:50   0.59   72.2    21    1.1   242     3.0   817.3    0.00 
 257    9:00   0.53   72.8    23    2.0   230     3.4   817.3    0.00 
 257    9:10   0.61   73.1    20    2.0   355     6.4   817.3    0.00 
 257    9:20   0.72   73.6    20    2.5   291     7.6   817.3    0.00 
 257    9:30   0.73   74.0    22    2.7   267     5.2   817.3    0.00 
 257    9:40   0.75   74.2    19    4.4   351     8.2   817.2    0.00 
 257    9:50   0.77   75.1    16    4.3     5     8.4   817.2    0.00 
 257   10:00   0.80   76.1    15    3.1    51     8.3   817.0    0.00 
 257   10:10   0.81   76.6    16    5.0    56     8.6   816.9    0.00 
 257   10:20   0.83   76.4    16    4.6     0     9.9   816.8    0.00 
 257   10:30   0.81   77.1    15    4.0    11     7.8   816.8    0.00 
 257   10:40   0.85   77.1    16    4.2    10     8.7   816.7    0.00 
 257   10:50   0.86   77.3    16    3.7   352     8.3   816.6    0.00 
 257   11:00   0.87   77.5    17    3.8   259    11.0   816.5    0.00 
 257   11:10   0.89   78.1    15    4.8    14    10.4   816.3    0.00 
 257   11:20   0.89   78.3    15    4.9    27    11.2   816.2    0.00 
 257   11:30   0.90   77.1    19    6.6   305    16.7   816.1    0.00 
 257   11:40   0.90   78.1    15    4.4    32    11.3   816.1    0.00 
 257   11:50   0.88   78.6    17    7.6   339    15.1   816.0    0.00 
 257   12:00   0.93   78.4    17    6.3   323    13.7   815.9    0.00 
 257   12:10   0.73   78.3    15    6.2   356    11.2   815.8    0.00 
 257   12:20   0.83   79.1    16    5.9   335    12.9   815.7    0.00 
 257   12:30   0.28   79.0    14    2.9   347     6.8   815.5    0.00 
 257   12:40   0.20   75.2    24    6.6   226    12.6   815.5    0.00 
 257   12:50   0.25   74.7    20    6.1   199     9.9   815.4    0.00 
 257   13:00   1.01   77.7    21    5.2   284     9.1   815.4    0.00 
 257   13:10   0.92   80.0    18    6.1   267    14.3   815.4    0.00 
 257   13:20   0.85   77.6    23   11.1   235    18.3   815.3    0.00 
 257   13:30   0.81   77.5    19   12.6   225    22.0   815.2    0.00 
 257   13:40   0.79   76.8    21   10.0   244    15.9   815.3    0.00 
 257   13:50   0.77   76.3    22   14.5   252    21.3   815.2    0.00 
 257   14:00   0.75   76.0    20   13.9   248    20.5   815.3    0.00 
 257   14:10   0.72   76.7    21   11.0   251    17.3   815.3    0.00 
 257   14:20   0.70   77.4    20    9.7   239    18.7   815.2    0.00 
 257   14:30   0.67   76.7    23   11.0   265    17.2   815.3    0.00 
 257   14:40   0.65   77.2    22    8.2   257    15.4   815.2    0.00 
 257   14:50   0.63   77.2    24    9.3   276    16.7   815.1    0.00 
 257   15:00   0.62   77.5    23    8.6   275    15.6   815.1    0.00 
 257   15:10   0.45   76.4    25   11.4   289    17.4   815.0    0.00 
 257   15:20   0.36   75.5    24    9.3   272    13.9   815.0    0.00 
 257   15:30   0.51   78.3    21    7.0   215    15.3   815.0    0.00 
 257   15:40   0.48   79.7    20    4.0   261     8.4   815.0    0.00 
 257   15:50   0.44   78.5    24    6.9   255    13.7   814.9    0.00 
 257   16:00   0.39   76.7    24   10.1   288    16.1   814.8    0.00 
 257   16:10   0.35   76.2    23   10.0   307    17.2   814.8    0.00 
 257   16:20   0.31   77.0    22    8.1   302    13.5   814.8    0.00 
 257   16:30   0.29   75.5    26    8.5   276    14.7   814.8    0.00 
 257   16:40   0.26   75.1    25    9.2   286    18.5   814.8    0.00 
 257   16:50   0.21   74.7    25   11.0   284    16.4   814.9    0.00 
 257   17:00   0.17   74.6    24    9.1   286    16.7   814.9    0.00 
 257   17:10   0.14   73.7    25    8.1   282    16.6   814.9    0.00 
 257   17:20   0.10   73.0    25    8.8   296    14.5   815.0    0.00 

Return to Reese River Valley graphs page.


Western Regional Climate Center,wrcc@dri.edu